Time;durP1;ratioP1;P1;durP2;ratioP2;P2;SDS_P1;SDS_P2;PMS_P1;PMS_P2;Temp;Humidity;BMP_temperature;BMP_pressure;BME280_temperature;BME280_humidity;BME280_pressure;Samples;Min_cycle;Max_cycle;Signal;HPM_P1;HPM_P2
2024/03/13 00:00:46;;;;;;;13.70;5.53;;;;;;;;;;7412845;19;19933;-81
2024/03/13 00:03:32;;;;;;;9.60;4.50;;;;;;;;;;7414599;19;20505;-81
2024/03/13 00:06:16;;;;;;;8.18;4.40;;;;;;;;;;7409655;19;19970;-81
2024/03/13 00:09:00;;;;;;;9.07;4.43;;;;;;;;;;7411897;19;19915;-81
2024/03/13 00:11:47;;;;;;;10.43;4.30;;;;;;;;;;7414191;19;19915;-81
2024/03/13 00:14:34;;;;;;;8.40;4.05;;;;;;;;;;7410419;19;19915;-81
2024/03/13 00:17:19;;;;;;;10.82;4.35;;;;;;;;;;7413273;19;19921;-81
2024/03/13 00:20:11;;;;;;;10.57;4.30;;;;;;;;;;7412505;19;20318;-81
2024/03/13 00:22:55;;;;;;;10.45;4.05;;;;;;;;;;7411533;19;19914;-81
2024/03/13 00:25:40;;;;;;;10.90;4.07;;;;;;;;;;7412181;19;19913;-81
2024/03/13 00:28:26;;;;;;;6.95;3.63;;;;;;;;;;7412086;19;19927;-81
2024/03/13 00:31:16;;;;;;;10.57;4.10;;;;;;;;;;7412447;19;19911;-81
2024/03/13 00:34:02;;;;;;;9.77;3.55;;;;;;;;;;7411264;19;19922;-81
2024/03/13 00:36:51;;;;;;;7.82;3.53;;;;;;;;;;7410526;19;19922;-81
2024/03/13 00:39:35;;;;;;;8.68;4.00;;;;;;;;;;7411875;19;19974;-81
2024/03/13 00:42:20;;;;;;;11.88;4.03;;;;;;;;;;7412460;19;19919;-81
2024/03/13 00:45:07;;;;;;;9.63;4.07;;;;;;;;;;7411076;19;20230;-81
2024/03/13 00:47:56;;;;;;;8.05;3.75;;;;;;;;;;7401651;19;19918;-79
2024/03/13 00:50:41;;;;;;;7.60;3.60;;;;;;;;;;7411587;19;19911;-79
2024/03/13 00:53:27;;;;;;;8.52;3.92;;;;;;;;;;7416974;19;19922;-79
2024/03/13 00:56:16;;;;;;;8.43;3.90;;;;;;;;;;7411527;19;19911;-79
2024/03/13 00:59:05;;;;;;;8.30;4.25;;;;;;;;;;7413033;19;19970;-79
2024/03/13 01:01:50;;;;;;;13.35;4.38;;;;;;;;;;7413425;19;19918;-79
2024/03/13 01:04:39;;;;;;;10.35;4.72;;;;;;;;;;7412910;19;19988;-79
2024/03/13 01:07:23;;;;;;;10.50;4.25;;;;;;;;;;7412444;19;19992;-79
2024/03/13 01:10:11;;;;;;;13.18;4.90;;;;;;;;;;7412316;19;19919;-79
2024/03/13 01:12:59;;;;;;;10.20;4.75;;;;;;;;;;7413547;19;20398;-80
2024/03/13 01:15:46;;;;;;;9.13;5.10;;;;;;;;;;7408332;19;19946;-79
2024/03/13 01:18:30;;;;;;;12.23;4.97;;;;;;;;;;7411057;19;20338;-79
2024/03/13 01:21:17;;;;;;;10.27;4.70;;;;;;;;;;7412020;19;19946;-79
2024/03/13 01:24:02;;;;;;;12.77;4.70;;;;;;;;;;7410623;19;19907;-79
2024/03/13 01:26:46;;;;;;;9.93;4.15;;;;;;;;;;7409233;19;19914;-79
2024/03/13 01:29:31;;;;;;;11.00;4.88;;;;;;;;;;7413849;19;19914;-79
2024/03/13 01:32:17;;;;;;;12.98;4.55;;;;;;;;;;7411550;19;19903;-79
2024/03/13 01:35:01;;;;;;;11.35;5.22;;;;;;;;;;7411494;19;20389;-79
2024/03/13 01:37:58;;;;;;;12.18;4.65;;;;;;;;;;7412038;19;20305;-79
2024/03/13 01:56:04;;;;;;;10.10;4.40;;;;;;;;;;7405792;19;19921;-79
2024/03/13 01:59:02;;;;;;;9.65;3.95;;;;;;;;;;7412264;19;19927;-79
2024/03/13 02:04:48;;;;;;;9.27;3.83;;;;;;;;;;7410901;19;20334;-79
2024/03/13 02:07:32;;;;;;;7.85;4.22;;;;;;;;;;7410196;19;19918;-79
2024/03/13 02:10:19;;;;;;;10.10;4.10;;;;;;;;;;7412446;19;19914;-79
2024/03/13 02:13:09;;;;;;;6.43;3.50;;;;;;;;;;7409197;19;19926;-79
2024/03/13 02:15:53;;;;;;;7.45;4.10;;;;;;;;;;7408437;19;20233;-79
2024/03/13 02:18:39;;;;;;;9.75;4.65;;;;;;;;;;7409515;19;20257;-79
2024/03/13 02:21:26;;;;;;;8.05;3.90;;;;;;;;;;7410925;19;19982;-79
2024/03/13 02:24:18;;;;;;;9.23;4.20;;;;;;;;;;7412260;19;19911;-79
2024/03/13 02:27:11;;;;;;;9.23;4.10;;;;;;;;;;7409401;19;19918;-79
2024/03/13 02:29:58;;;;;;;10.05;4.20;;;;;;;;;;7411727;19;20255;-79
2024/03/13 02:32:47;;;;;;;11.25;4.57;;;;;;;;;;7409365;19;20322;-79
2024/03/13 02:35:33;;;;;;;10.35;4.38;;;;;;;;;;7407352;19;19950;-79
2024/03/13 02:38:20;;;;;;;13.45;4.72;;;;;;;;;;7407420;19;19914;-79
2024/03/13 02:41:07;;;;;;;11.20;5.28;;;;;;;;;;7409425;19;19914;-79
2024/03/13 02:43:57;;;;;;;11.50;4.82;;;;;;;;;;7407826;19;19926;-79
2024/03/13 02:46:43;;;;;;;14.50;5.85;;;;;;;;;;7407958;19;19921;-79
2024/03/13 02:49:27;;;;;;;11.40;5.60;;;;;;;;;;7410949;19;20321;-79
2024/03/13 02:52:14;;;;;;;10.05;5.15;;;;;;;;;;7408839;19;19907;-79
2024/03/13 02:55:00;;;;;;;14.93;5.82;;;;;;;;;;7407569;19;19911;-79
2024/03/13 02:57:49;;;;;;;12.68;5.43;;;;;;;;;;7409279;19;20261;-79
2024/03/13 03:00:36;;;;;;;14.95;6.40;;;;;;;;;;7410318;19;19910;-79
2024/03/13 03:03:22;;;;;;;11.68;5.20;;;;;;;;;;7408910;19;19918;-79
2024/03/13 03:06:07;;;;;;;15.35;4.70;;;;;;;;;;7409996;19;19914;-79
2024/03/13 03:08:53;;;;;;;14.63;5.78;;;;;;;;;;7411667;19;20231;-79
2024/03/13 03:11:37;;;;;;;13.23;5.47;;;;;;;;;;7411718;19;19915;-79
2024/03/13 03:14:24;;;;;;;14.07;6.07;;;;;;;;;;7409446;19;20286;-79
2024/03/13 03:17:10;;;;;;;11.90;5.22;;;;;;;;;;7409684;19;20327;-79
2024/03/13 03:19:56;;;;;;;13.07;5.63;;;;;;;;;;7412377;19;19944;-79
2024/03/13 03:22:42;;;;;;;9.70;4.68;;;;;;;;;;7411167;19;20232;-79
2024/03/13 03:25:28;;;;;;;11.50;5.80;;;;;;;;;;7408542;19;20334;-79
2024/03/13 03:28:16;;;;;;;12.02;5.97;;;;;;;;;;7410781;19;19957;-80
2024/03/13 03:31:04;;;;;;;13.90;5.75;;;;;;;;;;7411579;19;19910;-80
2024/03/13 03:33:51;;;;;;;11.73;5.00;;;;;;;;;;7412297;19;20282;-80
2024/03/13 03:36:40;;;;;;;13.05;5.55;;;;;;;;;;7410717;19;19914;-80
2024/03/13 03:39:26;;;;;;;12.40;5.70;;;;;;;;;;7414328;19;20294;-80
2024/03/13 03:42:12;;;;;;;13.57;5.70;;;;;;;;;;7411262;19;19910;-80
2024/03/13 03:44:59;;;;;;;13.68;5.78;;;;;;;;;;7411800;19;20003;-80
2024/03/13 03:47:48;;;;;;;13.45;5.63;;;;;;;;;;7410792;19;19921;-80
2024/03/13 03:50:32;;;;;;;19.25;6.35;;;;;;;;;;7412600;19;19930;-80
2024/03/13 03:53:17;;;;;;;17.75;6.00;;;;;;;;;;7411326;19;19938;-80
2024/03/13 03:56:03;;;;;;;16.60;6.07;;;;;;;;;;7409475;19;19929;-80
2024/03/13 03:58:50;;;;;;;13.68;5.80;;;;;;;;;;7412520;19;19945;-80
2024/03/13 04:01:38;;;;;;;18.85;7.15;;;;;;;;;;7413291;19;19919;-80
2024/03/13 04:04:27;;;;;;;14.45;5.95;;;;;;;;;;7411681;19;19914;-80
2024/03/13 04:07:16;;;;;;;18.80;6.38;;;;;;;;;;7408820;19;19926;-80
2024/03/13 04:10:00;;;;;;;15.45;6.10;;;;;;;;;;7412491;19;20403;-80
2024/03/13 04:12:49;;;;;;;16.98;5.88;;;;;;;;;;7413814;19;19911;-80
2024/03/13 04:15:37;;;;;;;17.80;7.65;;;;;;;;;;7408900;19;20349;-80
2024/03/13 04:18:25;;;;;;;17.23;6.72;;;;;;;;;;7408870;19;19914;-80
2024/03/13 04:21:12;;;;;;;13.68;6.05;;;;;;;;;;7411472;19;19918;-80
2024/03/13 04:24:00;;;;;;;15.40;6.82;;;;;;;;;;7411104;19;19933;-79
2024/03/13 04:26:49;;;;;;;17.30;7.38;;;;;;;;;;7415229;19;19919;-79
2024/03/13 04:29:36;;;;;;;17.73;6.85;;;;;;;;;;7419162;19;19911;-79
2024/03/13 04:32:25;;;;;;;16.02;6.57;;;;;;;;;;7418470;19;20321;-79
2024/03/13 04:35:12;;;;;;;19.45;7.03;;;;;;;;;;7416315;19;19907;-79
2024/03/13 04:37:59;;;;;;;17.60;7.10;;;;;;;;;;7415315;19;19903;-79
2024/03/13 04:40:45;;;;;;;14.52;6.43;;;;;;;;;;7417204;19;19919;-79
2024/03/13 04:43:33;;;;;;;15.50;6.20;;;;;;;;;;7418348;19;19918;-80
2024/03/13 04:46:17;;;;;;;14.10;5.93;;;;;;;;;;7415410;19;19922;-80
2024/03/13 04:49:04;;;;;;;16.48;6.47;;;;;;;;;;7413267;19;20008;-80
2024/03/13 04:51:48;;;;;;;14.00;6.07;;;;;;;;;;7415144;19;20381;-80
2024/03/13 04:54:35;;;;;;;13.05;5.70;;;;;;;;;;7414747;19;20277;-80
2024/03/13 04:57:21;;;;;;;13.88;5.68;;;;;;;;;;7412997;19;19914;-80
2024/03/13 05:00:09;;;;;;;12.18;6.10;;;;;;;;;;7417549;19;19915;-80
2024/03/13 05:02:57;;;;;;;15.38;5.80;;;;;;;;;;7416353;19;19911;-80
2024/03/13 05:05:45;;;;;;;15.82;6.88;;;;;;;;;;7414798;19;19915;-80
2024/03/13 05:08:35;;;;;;;14.82;5.95;;;;;;;;;;7416326;19;20238;-80
2024/03/13 05:11:22;;;;;;;13.18;6.50;;;;;;;;;;7417486;19;19911;-80
2024/03/13 05:14:06;;;;;;;12.68;5.88;;;;;;;;;;7418301;19;19910;-80
2024/03/13 05:16:55;;;;;;;13.93;5.80;;;;;;;;;;7413514;19;19917;-80
2024/03/13 05:19:39;;;;;;;12.73;6.22;;;;;;;;;;7415809;19;19914;-79
2024/03/13 05:22:29;;;;;;;16.98;7.63;;;;;;;;;;7418556;19;19918;-79
2024/03/13 05:25:19;;;;;;;15.93;6.60;;;;;;;;;;7416580;19;19918;-79
2024/03/13 05:28:08;;;;;;;;;;;;;;;;;;7416811;19;19926;-79
2024/03/13 05:30:54;;;;;;;12.15;5.15;;;;;;;;;;7417246;19;20291;-80
2024/03/13 05:33:40;;;;;;;13.18;5.60;;;;;;;;;;7416996;19;19911;-80
2024/03/13 05:36:24;;;;;;;12.95;5.50;;;;;;;;;;7413708;19;19924;-80
2024/03/13 05:39:12;;;;;;;15.18;6.57;;;;;;;;;;7413638;19;19918;-80
2024/03/13 05:41:56;;;;;;;12.40;5.75;;;;;;;;;;7417336;19;19922;-80
2024/03/13 05:44:43;;;;;;;13.07;5.55;;;;;;;;;;7420506;19;19919;-80
2024/03/13 05:47:32;;;;;;;12.05;5.10;;;;;;;;;;7430984;19;19919;-80
2024/03/13 05:50:21;;;;;;;11.85;5.00;;;;;;;;;;7434770;19;19945;-80
2024/03/13 05:53:06;;;;;;;11.02;4.40;;;;;;;;;;7434527;19;19944;-80
2024/03/13 05:55:50;;;;;;;8.52;4.45;;;;;;;;;;7433312;19;19919;-80
2024/03/13 05:58:37;;;;;;;9.95;4.72;;;;;;;;;;7432261;19;19914;-80
2024/03/13 06:01:27;;;;;;;9.45;4.43;;;;;;;;;;7436306;19;19915;-80
2024/03/13 06:04:12;;;;;;;9.93;4.32;;;;;;;;;;7433908;19;19926;-80
2024/03/13 06:06:59;;;;;;;9.85;4.35;;;;;;;;;;7418051;19;19929;-80
2024/03/13 06:09:43;;;;;;;8.48;3.75;;;;;;;;;;7417604;19;19923;-80
2024/03/13 06:12:28;;;;;;;8.13;4.03;;;;;;;;;;7417574;19;19920;-80
2024/03/13 06:15:15;;;;;;;7.45;3.85;;;;;;;;;;7415132;19;19910;-80
2024/03/13 06:18:01;;;;;;;7.40;4.20;;;;;;;;;;7416034;19;19911;-80
2024/03/13 06:20:50;;;;;;;9.18;3.53;;;;;;;;;;7420144;19;20344;-80
2024/03/13 06:23:47;;;;;;;10.02;3.90;;;;;;;;;;7415122;19;19970;-80
2024/03/13 06:26:31;;;;;;;7.70;4.22;;;;;;;;;;7412236;19;19971;-79
2024/03/13 06:32:15;;;;;;;6.85;3.78;;;;;;;;;;7417555;19;19914;-80
2024/03/13 06:35:05;;;;;;;6.70;4.22;;;;;;;;;;7416471;19;20267;-80
2024/03/13 06:37:51;;;;;;;;;;;;;;;;;;7418600;19;19923;-81
2024/03/13 06:40:37;;;;;;;5.78;3.35;;;;;;;;;;7417082;19;19933;-80
2024/03/13 06:43:24;;;;;;;6.57;3.47;;;;;;;;;;7418465;19;19923;-80
2024/03/13 06:46:10;;;;;;;8.05;4.13;;;;;;;;;;7417028;19;19925;-80
2024/03/13 06:48:57;;;;;;;8.02;3.97;;;;;;;;;;7418584;19;20020;-80
2024/03/13 06:51:44;;;;;;;9.02;3.85;;;;;;;;;;7417117;19;20360;-80
2024/03/13 06:54:31;;;;;;;10.65;3.97;;;;;;;;;;7433433;19;19922;-80
2024/03/13 06:57:15;;;;;;;8.60;4.70;;;;;;;;;;7439803;19;19907;-81
2024/03/13 07:00:01;;;;;;;9.02;4.53;;;;;;;;;;7440629;19;20340;-80
2024/03/13 07:02:48;;;;;;;8.43;4.50;;;;;;;;;;7432150;19;19918;-80
2024/03/13 07:05:32;;;;;;;6.90;4.18;;;;;;;;;;7428994;19;19923;-80
2024/03/13 07:08:22;;;;;;;8.00;4.45;;;;;;;;;;7429960;19;20242;-79
2024/03/13 07:11:08;;;;;;;8.38;4.40;;;;;;;;;;7417777;19;19921;-79
2024/03/13 07:13:56;;;;;;;6.88;3.63;;;;;;;;;;7410563;19;19918;-79
2024/03/13 07:16:42;;;;;;;7.70;4.32;;;;;;;;;;7408206;19;19926;-80
2024/03/13 07:19:31;;;;;;;7.82;4.78;;;;;;;;;;7410985;19;19929;-80
2024/03/13 07:22:18;;;;;;;8.63;4.95;;;;;;;;;;7411613;19;19918;-80
2024/03/13 07:25:06;;;;;;;10.95;4.93;;;;;;;;;;7410603;19;20245;-80
2024/03/13 07:27:51;;;;;;;9.55;4.55;;;;;;;;;;7409475;19;19907;-80
2024/03/13 07:30:39;;;;;;;8.55;4.78;;;;;;;;;;7412062;19;19922;-80
2024/03/13 07:33:24;;;;;;;9.55;4.70;;;;;;;;;;7412470;19;19941;-80
2024/03/13 07:36:09;;;;;;;9.32;5.22;;;;;;;;;;7411659;19;19929;-78
2024/03/13 07:38:59;;;;;;;16.90;6.05;;;;;;;;;;7407752;19;19907;-78
2024/03/13 07:41:46;;;;;;;11.57;5.70;;;;;;;;;;7406495;19;19922;-78
2024/03/13 07:44:32;;;;;;;11.60;6.28;;;;;;;;;;7408808;19;19922;-78
2024/03/13 07:47:20;;;;;;;12.73;5.97;;;;;;;;;;7402371;19;19926;-78
2024/03/13 07:50:05;;;;;;;10.32;5.63;;;;;;;;;;7401436;19;19922;-78
2024/03/13 07:52:49;;;;;;;10.63;5.70;;;;;;;;;;7406399;19;19919;-78
2024/03/13 07:55:39;;;;;;;11.38;5.55;;;;;;;;;;7405433;19;19937;-78
2024/03/13 07:58:31;;;;;;;11.27;5.72;;;;;;;;;;7403650;19;19914;-78
2024/03/13 08:01:20;;;;;;;10.60;5.35;;;;;;;;;;7403064;19;19927;-78
2024/03/13 08:04:07;;;;;;;8.90;5.30;;;;;;;;;;7403765;19;19946;-78
2024/03/13 08:06:53;;;;;;;9.65;4.72;;;;;;;;;;7405370;19;19923;-79
2024/03/13 08:09:40;;;;;;;12.70;6.47;;;;;;;;;;7405840;19;19925;-79
2024/03/13 08:12:29;;;;;;;11.00;5.82;;;;;;;;;;7407068;19;20381;-79
2024/03/13 08:15:18;;;;;;;9.10;4.32;;;;;;;;;;7404809;19;20251;-79
2024/03/13 08:18:02;;;;;;;8.48;4.68;;;;;;;;;;7403573;19;19915;-79
2024/03/13 08:20:48;;;;;;;7.22;4.40;;;;;;;;;;7404492;19;19938;-79
2024/03/13 08:23:35;;;;;;;9.05;4.22;;;;;;;;;;7401428;19;19935;-79
2024/03/13 08:26:21;;;;;;;8.30;4.05;;;;;;;;;;7404395;19;20229;-79
2024/03/13 08:29:06;;;;;;;9.32;4.32;;;;;;;;;;7405105;19;19911;-79
2024/03/13 08:31:55;;;;;;;5.72;3.55;;;;;;;;;;7404441;19;19923;-79
2024/03/13 08:34:43;;;;;;;6.90;3.72;;;;;;;;;;7402989;19;19915;-79
2024/03/13 08:37:29;;;;;;;5.38;3.22;;;;;;;;;;7405469;19;19923;-79
2024/03/13 08:40:14;;;;;;;6.65;3.50;;;;;;;;;;7407507;19;19934;-79
2024/03/13 08:43:00;;;;;;;6.00;3.10;;;;;;;;;;7408988;19;19918;-79
2024/03/13 08:45:44;;;;;;;5.25;3.20;;;;;;;;;;7405641;19;19910;-79
2024/03/13 08:48:33;;;;;;;4.20;2.90;;;;;;;;;;7408311;19;19914;-79
2024/03/13 08:51:22;;;;;;;6.65;3.42;;;;;;;;;;7407115;19;19930;-79
2024/03/13 08:54:10;;;;;;;6.90;3.17;;;;;;;;;;7406743;19;19926;-79
2024/03/13 08:56:58;;;;;;;6.00;3.45;;;;;;;;;;7404630;19;19999;-78
2024/03/13 08:59:44;;;;;;;4.50;3.00;;;;;;;;;;7408933;19;20625;-78
2024/03/13 09:02:33;;;;;;;4.75;3.40;;;;;;;;;;7405565;19;19970;-78
2024/03/13 09:05:20;;;;;;;5.53;2.92;;;;;;;;;;7406051;19;19952;-78
2024/03/13 09:08:07;;;;;;;4.57;3.00;;;;;;;;;;7405704;19;19931;-78
2024/03/13 09:10:51;;;;;;;3.50;2.50;;;;;;;;;;7405090;19;19927;-78
2024/03/13 09:13:36;;;;;;;6.38;2.80;;;;;;;;;;7410927;19;19911;-78
2024/03/13 09:16:23;;;;;;;4.65;3.22;;;;;;;;;;7411613;19;20228;-78
2024/03/13 09:19:07;;;;;;;4.13;2.60;;;;;;;;;;7412328;19;19921;-78
2024/03/13 09:21:58;;;;;;;5.43;3.38;;;;;;;;;;7411076;19;19927;-78
2024/03/13 09:24:44;;;;;;;6.40;3.47;;;;;;;;;;7405496;19;19941;-78
2024/03/13 09:27:29;;;;;;;6.72;3.63;;;;;;;;;;7406910;19;20033;-78
2024/03/13 09:30:13;;;;;;;6.20;3.17;;;;;;;;;;7410050;19;19930;-78
2024/03/13 09:32:59;;;;;;;5.53;3.40;;;;;;;;;;7409586;19;19922;-78
2024/03/13 09:35:46;;;;;;;6.70;3.67;;;;;;;;;;7409824;19;19914;-78
2024/03/13 09:38:35;;;;;;;6.90;3.28;;;;;;;;;;7406350;19;19939;-78
2024/03/13 09:41:25;;;;;;;5.20;3.15;;;;;;;;;;7411909;19;20249;-79
2024/03/13 09:44:15;;;;;;;4.75;3.03;;;;;;;;;;7414992;19;19948;-78
2024/03/13 09:47:00;;;;;;;4.40;2.72;;;;;;;;;;7413067;19;19914;-79
2024/03/13 09:49:46;;;;;;;5.72;3.30;;;;;;;;;;7413431;19;19944;-78
2024/03/13 09:52:32;;;;;;;5.75;2.65;;;;;;;;;;7412228;19;20257;-78
2024/03/13 09:55:21;;;;;;;4.78;2.92;;;;;;;;;;7412838;19;20321;-79
2024/03/13 09:58:11;;;;;;;3.90;1.95;;;;;;;;;;7411357;19;19923;-79
2024/03/13 10:01:00;;;;;;;3.67;2.00;;;;;;;;;;7410886;19;19915;-79
2024/03/13 10:03:50;;;;;;;3.50;2.05;;;;;;;;;;7412314;19;19939;-79
2024/03/13 10:06:36;;;;;;;8.00;2.72;;;;;;;;;;7408971;19;19925;-79
2024/03/13 10:09:28;;;;;;;5.88;2.65;;;;;;;;;;7415450;19;19915;-79
2024/03/13 10:12:21;;;;;;;4.70;2.53;;;;;;;;;;7414843;19;20300;-79
2024/03/13 10:15:07;;;;;;;3.75;2.42;;;;;;;;;;7412899;19;19911;-79
2024/03/13 10:18:00;;;;;;;4.40;2.60;;;;;;;;;;7411201;19;19920;-79
2024/03/13 10:20:55;;;;;;;4.53;2.90;;;;;;;;;;7412414;19;19914;-79
2024/03/13 10:23:45;;;;;;;5.50;2.80;;;;;;;;;;7413643;19;19926;-79
2024/03/13 10:26:34;;;;;;;6.93;2.90;;;;;;;;;;7412948;19;19922;-79
2024/03/13 10:29:26;;;;;;;3.53;2.30;;;;;;;;;;7413463;19;19914;-79
2024/03/13 10:32:16;;;;;;;4.90;3.13;;;;;;;;;;7413984;19;19930;-79
2024/03/13 10:35:03;;;;;;;5.20;2.95;;;;;;;;;;7413981;19;19919;-79
2024/03/13 10:37:50;;;;;;;3.25;2.08;;;;;;;;;;7412106;19;19918;-79
2024/03/13 10:40:34;;;;;;;4.18;2.50;;;;;;;;;;7412515;19;20361;-79
2024/03/13 10:43:19;;;;;;;3.17;2.20;;;;;;;;;;7412833;19;19925;-79
2024/03/13 10:46:08;;;;;;;3.95;2.10;;;;;;;;;;7409575;19;19923;-79
2024/03/13 10:48:57;;;;;;;4.28;1.90;;;;;;;;;;7413105;19;19922;-79
2024/03/13 10:51:44;;;;;;;3.95;2.40;;;;;;;;;;7411729;19;19926;-79
2024/03/13 10:54:34;;;;;;;3.47;2.20;;;;;;;;;;7414803;19;19918;-79
2024/03/13 10:57:21;;;;;;;3.92;2.10;;;;;;;;;;7418818;19;19914;-79
2024/03/13 11:00:17;;;;;;;4.10;2.10;;;;;;;;;;7413646;19;20350;-79
2024/03/13 11:03:07;;;;;;;4.43;2.20;;;;;;;;;;7418571;19;19903;-79
2024/03/13 11:05:52;;;;;;;3.55;2.35;;;;;;;;;;7418017;19;19923;-79
2024/03/13 11:08:39;;;;;;;5.28;2.60;;;;;;;;;;7409607;19;19948;-79
2024/03/13 11:11:28;;;;;;;3.58;2.30;;;;;;;;;;7411116;19;19922;-79
2024/03/13 11:14:19;;;;;;;3.55;2.30;;;;;;;;;;7412710;19;20252;-78
2024/03/13 11:17:06;;;;;;;3.30;2.08;;;;;;;;;;7409558;19;20019;-78
2024/03/13 11:20:05;;;;;;;2.67;1.73;;;;;;;;;;7410227;19;19922;-78
2024/03/13 11:22:58;;;;;;;2.95;2.20;;;;;;;;;;7410527;19;19927;-78
2024/03/13 11:25:49;;;;;;;3.75;2.35;;;;;;;;;;7411043;19;19929;-79
2024/03/13 11:28:39;;;;;;;3.58;2.10;;;;;;;;;;7409800;19;19925;-79
2024/03/13 11:31:25;;;;;;;3.60;2.30;;;;;;;;;;7407599;19;19918;-79
2024/03/13 11:34:11;;;;;;;4.32;2.45;;;;;;;;;;7408172;19;19907;-79
2024/03/13 11:36:58;;;;;;;4.13;2.30;;;;;;;;;;7403254;19;20029;-79
2024/03/13 11:39:44;;;;;;;3.40;2.30;;;;;;;;;;7405841;19;19907;-79
2024/03/13 11:42:32;;;;;;;3.55;2.33;;;;;;;;;;7410154;19;19942;-79
2024/03/13 11:45:23;;;;;;;4.53;2.28;;;;;;;;;;7402745;19;19971;-79
2024/03/13 11:48:15;;;;;;;4.57;2.60;;;;;;;;;;7404637;19;19935;-79
2024/03/13 11:51:10;;;;;;;5.28;3.10;;;;;;;;;;7412968;19;19915;-79
2024/03/13 11:54:11;;;;;;;3.63;2.33;;;;;;;;;;7406261;19;19922;-79
2024/03/13 11:57:05;;;;;;;3.42;2.25;;;;;;;;;;7409778;19;20409;-79
2024/03/13 11:59:53;;;;;;;3.75;2.08;;;;;;;;;;7411559;19;19974;-79
2024/03/13 12:02:41;;;;;;;3.35;2.17;;;;;;;;;;7406687;19;19982;-79
2024/03/13 12:05:36;;;;;;;3.28;2.28;;;;;;;;;;7408112;19;20303;-79
2024/03/13 12:08:23;;;;;;;4.07;2.53;;;;;;;;;;7409229;19;19919;-79
2024/03/13 12:11:19;;;;;;;4.43;2.55;;;;;;;;;;7411047;19;19930;-79
2024/03/13 12:14:07;;;;;;;2.92;2.05;;;;;;;;;;7412562;19;20337;-79
2024/03/13 12:16:54;;;;;;;3.97;2.70;;;;;;;;;;7407759;19;19914;-79
2024/03/13 12:19:40;;;;;;;5.40;2.92;;;;;;;;;;7410892;19;19919;-79
2024/03/13 12:22:25;;;;;;;6.28;2.40;;;;;;;;;;7410537;19;19958;-79
2024/03/13 12:25:13;;;;;;;5.05;3.05;;;;;;;;;;7409341;19;19910;-79
2024/03/13 12:28:00;;;;;;;3.63;2.47;;;;;;;;;;7406552;19;19915;-79
2024/03/13 12:30:48;;;;;;;3.83;2.53;;;;;;;;;;7407918;19;19978;-80
2024/03/13 12:33:36;;;;;;;3.78;2.38;;;;;;;;;;7412093;19;19919;-80
2024/03/13 12:36:27;;;;;;;2.78;1.80;;;;;;;;;;7407412;19;19919;-79
2024/03/13 12:39:12;;;;;;;2.47;1.75;;;;;;;;;;7410080;19;19918;-79
2024/03/13 12:41:56;;;;;;;3.58;2.13;;;;;;;;;;7408827;19;20008;-79
2024/03/13 12:44:48;;;;;;;2.95;1.92;;;;;;;;;;7407603;19;19922;-79
2024/03/13 12:47:33;;;;;;;3.75;2.03;;;;;;;;;;7411646;19;19910;-80
2024/03/13 12:50:20;;;;;;;2.53;1.55;;;;;;;;;;7416410;19;19937;-80
2024/03/13 12:53:06;;;;;;;2.78;1.75;;;;;;;;;;7416656;19;19918;-80
2024/03/13 12:55:55;;;;;;;2.63;1.85;;;;;;;;;;7413727;19;19929;-80
2024/03/13 12:59:05;;;;;;;2.78;1.92;;;;;;;;;;7412358;19;20338;-80
2024/03/13 13:01:52;;;;;;;2.95;1.80;;;;;;;;;;7415664;19;19915;-79
2024/03/13 13:04:43;;;;;;;2.75;1.73;;;;;;;;;;7414038;19;19920;-79
2024/03/13 13:07:29;;;;;;;2.70;1.70;;;;;;;;;;7410736;19;20354;-79
2024/03/13 13:10:17;;;;;;;3.88;2.38;;;;;;;;;;7413763;19;20293;-80
2024/03/13 13:13:06;;;;;;;2.50;1.80;;;;;;;;;;7405859;19;20741;-79
2024/03/13 13:15:53;;;;;;;2.60;2.00;;;;;;;;;;7400521;19;19952;-79
2024/03/13 13:18:52;;;;;;;2.63;1.60;;;;;;;;;;7394605;19;19922;-79
2024/03/13 13:21:38;;;;;;;;;;;;;;;;;;7394496;19;20668;-79
2024/03/13 13:24:23;;;;;;;2.92;2.15;;;;;;;;;;7412091;19;19914;-80
2024/03/13 13:27:10;;;;;;;4.18;2.50;;;;;;;;;;7414791;19;19922;-80
2024/03/13 13:29:56;;;;;;;3.67;1.88;;;;;;;;;;7416371;19;20341;-80
2024/03/13 13:32:41;;;;;;;3.05;1.92;;;;;;;;;;7418372;19;19930;-80
2024/03/13 13:35:28;;;;;;;2.75;2.00;;;;;;;;;;7405065;19;20394;-79
2024/03/13 13:38:18;;;;;;;3.40;2.30;;;;;;;;;;7394767;19;19926;-79
2024/03/13 13:41:07;;;;;;;4.35;2.33;;;;;;;;;;7413459;19;19929;-79
2024/03/13 13:43:54;;;;;;;3.22;1.92;;;;;;;;;;7414592;19;21420;-79
2024/03/13 13:46:38;;;;;;;4.03;1.80;;;;;;;;;;7410257;19;19911;-79
2024/03/13 13:49:25;;;;;;;3.17;2.13;;;;;;;;;;7412463;19;19915;-78
2024/03/13 13:52:17;;;;;;;3.58;2.45;;;;;;;;;;7414902;19;19945;-78
2024/03/13 13:55:01;;;;;;;3.17;2.30;;;;;;;;;;7419264;19;19925;-79
2024/03/13 13:57:48;;;;;;;4.50;2.00;;;;;;;;;;7419810;19;19922;-79
2024/03/13 14:00:37;;;;;;;4.05;2.25;;;;;;;;;;7415273;19;19915;-79
2024/03/13 14:03:24;;;;;;;3.60;2.30;;;;;;;;;;7415327;19;19926;-80
2024/03/13 14:06:10;;;;;;;3.33;2.00;;;;;;;;;;7416527;19;20345;-79
2024/03/13 14:09:00;;;;;;;3.33;2.20;;;;;;;;;;7416476;19;19918;-78
2024/03/13 14:11:47;;;;;;;3.88;2.38;;;;;;;;;;7404005;19;19974;-79
2024/03/13 14:14:36;;;;;;;3.03;1.85;;;;;;;;;;7406718;19;19918;-78
2024/03/13 14:17:24;;;;;;;3.10;2.13;;;;;;;;;;7404248;19;19907;-79
2024/03/13 14:20:18;;;;;;;3.20;2.10;;;;;;;;;;7408066;19;19918;-79
2024/03/13 14:23:02;;;;;;;2.97;2.00;;;;;;;;;;7405967;19;19970;-78
2024/03/13 14:25:50;;;;;;;4.22;2.40;;;;;;;;;;7410215;19;19923;-79
2024/03/13 14:28:36;;;;;;;5.88;2.28;;;;;;;;;;7413111;19;19977;-79
2024/03/13 14:31:21;;;;;;;2.75;2.00;;;;;;;;;;7416868;19;19925;-79
2024/03/13 14:34:06;;;;;;;3.08;2.30;;;;;;;;;;7418104;19;19914;-79
2024/03/13 14:36:50;;;;;;;3.70;2.45;;;;;;;;;;7413549;19;19910;-79
2024/03/13 14:39:35;;;;;;;5.05;2.45;;;;;;;;;;7421783;19;19948;-80
2024/03/13 14:42:25;;;;;;;3.67;2.38;;;;;;;;;;7425002;19;19922;-80
2024/03/13 14:45:12;;;;;;;4.63;2.53;;;;;;;;;;7424243;19;19914;-80
2024/03/13 14:47:56;;;;;;;4.93;2.78;;;;;;;;;;7424223;19;19935;-80
2024/03/13 14:50:40;;;;;;;3.97;2.65;;;;;;;;;;7422881;19;19922;-80
2024/03/13 14:53:27;;;;;;;4.60;2.53;;;;;;;;;;7422797;19;19915;-80
2024/03/13 14:56:14;;;;;;;4.10;2.58;;;;;;;;;;7424121;19;19922;-80
2024/03/13 14:59:04;;;;;;;4.15;2.67;;;;;;;;;;7424544;19;19919;-80
2024/03/13 15:01:48;;;;;;;4.18;2.50;;;;;;;;;;7426008;19;19922;-80
2024/03/13 15:04:32;;;;;;;3.83;2.78;;;;;;;;;;7423869;19;19922;-80
2024/03/13 15:07:19;;;;;;;5.40;2.85;;;;;;;;;;7417464;19;19921;-79
2024/03/13 15:10:06;;;;;;;4.65;2.83;;;;;;;;;;7417517;19;20154;-79
2024/03/13 15:12:51;;;;;;;7.07;3.83;;;;;;;;;;7414215;19;19920;-79
2024/03/13 15:15:41;;;;;;;5.15;3.05;;;;;;;;;;7415922;19;19936;-79
2024/03/13 15:18:27;;;;;;;6.65;2.60;;;;;;;;;;7413697;19;20381;-79
2024/03/13 15:21:12;;;;;;;9.48;3.30;;;;;;;;;;7416945;19;20266;-79
2024/03/13 15:24:01;;;;;;;5.65;4.15;;;;;;;;;;7415196;19;19926;-79
2024/03/13 15:26:47;;;;;;;5.07;3.20;;;;;;;;;;7416547;19;19925;-79
2024/03/13 15:29:34;;;;;;;6.40;3.55;;;;;;;;;;7415408;19;19984;-79
2024/03/13 15:32:23;;;;;;;5.80;3.50;;;;;;;;;;7413099;19;19911;-79
2024/03/13 15:35:08;;;;;;;8.85;4.30;;;;;;;;;;7415939;19;19948;-79
2024/03/13 15:37:57;;;;;;;6.07;3.90;;;;;;;;;;7411713;19;19937;-79
2024/03/13 15:40:44;;;;;;;7.85;4.35;;;;;;;;;;7412195;19;19926;-80
2024/03/13 15:43:28;;;;;;;5.93;3.42;;;;;;;;;;7411723;19;19927;-79
2024/03/13 15:46:15;;;;;;;6.93;4.00;;;;;;;;;;7412707;19;20367;-79
2024/03/13 15:49:04;;;;;;;5.93;3.47;;;;;;;;;;7410651;19;19920;-80
2024/03/13 15:51:51;;;;;;;7.47;3.90;;;;;;;;;;7413223;19;19919;-79
2024/03/13 15:54:37;;;;;;;5.70;3.40;;;;;;;;;;7417329;19;19926;-80
2024/03/13 15:57:26;;;;;;;6.63;3.80;;;;;;;;;;7412451;19;20280;-80
2024/03/13 16:00:12;;;;;;;6.05;3.88;;;;;;;;;;7410825;19;20262;-80
2024/03/13 16:03:04;;;;;;;6.05;3.92;;;;;;;;;;7414459;19;19911;-79
2024/03/13 16:05:51;;;;;;;6.88;3.88;;;;;;;;;;7407395;19;20560;-79
2024/03/13 16:08:46;;;;;;;6.90;3.75;;;;;;;;;;7402298;19;20443;-79
2024/03/13 16:11:31;;;;;;;7.75;4.40;;;;;;;;;;7400714;19;20255;-78
2024/03/13 16:14:15;;;;;;;8.07;3.63;;;;;;;;;;7404636;19;19918;-78
2024/03/13 16:17:02;;;;;;;8.60;3.85;;;;;;;;;;7399602;19;19950;-78
2024/03/13 16:19:51;;;;;;;6.57;3.65;;;;;;;;;;7397204;19;19922;-79
2024/03/13 16:22:41;;;;;;;7.10;3.75;;;;;;;;;;7406187;19;19923;-79
2024/03/13 16:25:28;;;;;;;7.47;3.70;;;;;;;;;;7407690;19;19929;-79
2024/03/13 16:28:15;;;;;;;6.90;3.60;;;;;;;;;;7404413;19;20286;-78
2024/03/13 16:31:02;;;;;;;7.28;3.85;;;;;;;;;;7410246;19;19946;-80
2024/03/13 16:33:51;;;;;;;6.30;3.78;;;;;;;;;;7409895;19;19933;-78
2024/03/13 16:36:36;;;;;;;6.35;3.78;;;;;;;;;;7406965;19;19919;-78
2024/03/13 16:39:29;;;;;;;6.63;3.90;;;;;;;;;;7406715;19;20326;-78
2024/03/13 16:42:14;;;;;;;8.35;4.20;;;;;;;;;;7406653;19;19926;-78
2024/03/13 16:45:01;;;;;;;4.95;3.13;;;;;;;;;;7409354;19;19923;-78
2024/03/13 16:47:50;;;;;;;6.82;4.28;;;;;;;;;;7413035;19;19919;-78
2024/03/13 16:50:34;;;;;;;8.23;4.30;;;;;;;;;;7411524;19;19990;-78
2024/03/13 16:53:21;;;;;;;7.72;4.63;;;;;;;;;;7406947;19;19946;-78
2024/03/13 16:56:12;;;;;;;10.27;5.63;;;;;;;;;;7407252;19;20535;-78
2024/03/13 16:58:59;;;;;;;8.90;5.30;;;;;;;;;;7406458;19;19915;-78
2024/03/13 17:01:45;;;;;;;10.25;6.20;;;;;;;;;;7410406;19;19935;-79